Time;durP1;ratioP1;P1;durP2;ratioP2;P2;SDS_P1;SDS_P2;PMS_P1;PMS_P2;Temp;Humidity;BMP_temperature;BMP_pressure;BME280_temperature;BME280_humidity;BME280_pressure;Samples;Min_cycle;Max_cycle;Signal;HPM_P1;HPM_P2
2023/05/18 00:11:26;;;;;;;1.50;1.40;;;14.30;99.90;;;14.41;79.57;94477.41;5047908;28;20555;-61
2023/05/18 00:13:54;;;;;;;1.63;1.53;;;14.30;99.90;;;14.42;79.65;94475.56;5040477;28;20510;-61
2023/05/18 00:16:21;;;;;;;4.80;1.77;;;14.30;99.90;;;14.42;79.44;94475.56;5047134;28;22943;-67
2023/05/18 00:18:53;;;;;;;3.97;1.40;;;14.30;99.90;;;14.41;79.57;94482.69;5042790;28;20533;-61
2023/05/18 00:21:21;;;;;;;3.30;1.37;;;14.30;99.90;;;14.41;79.77;94482.69;5049512;28;20810;-68
2023/05/18 00:23:49;;;;;;;1.50;1.40;;;14.30;99.90;;;14.42;79.59;94483.50;5041451;28;20463;-66
2023/05/18 00:26:16;;;;;;;1.60;1.10;;;14.30;99.90;;;14.42;79.50;94483.50;5044724;28;20503;-61
2023/05/18 00:28:45;;;;;;;2.30;1.93;;;14.30;99.90;;;14.40;79.58;94483.66;5044297;28;20452;-61
2023/05/18 00:31:12;;;;;;;2.50;1.30;;;14.30;99.90;;;14.39;79.55;94483.84;5042108;28;20483;-61
2023/05/18 00:33:40;;;;;;;4.23;1.27;;;14.30;99.90;;;14.39;79.57;94478.56;5045428;28;20495;-70
2023/05/18 00:36:07;;;;;;;1.47;1.37;;;14.30;99.90;;;14.39;79.55;94483.84;5045490;28;20476;-69
2023/05/18 00:38:35;;;;;;;3.00;1.17;;;14.30;99.90;;;14.38;79.83;94483.03;5039068;28;20460;-68
2023/05/18 00:41:02;;;;;;;2.40;1.27;;;14.30;99.90;;;14.38;79.50;94482.22;5040987;28;21038;-68
2023/05/18 00:43:29;;;;;;;2.07;1.27;;;14.30;99.90;;;14.37;79.75;94488.50;5047139;28;20467;-62
2023/05/18 00:45:58;;;;;;;15.50;1.47;;;14.30;99.90;;;14.36;79.61;94490.31;5044154;28;20490;-68
2023/05/18 00:48:25;;;;;;;1.17;1.07;;;14.30;99.90;;;14.37;79.72;94485.84;5045502;28;20860;-60
2023/05/18 00:50:52;;;;;;;4.53;1.07;;;14.20;99.90;;;14.35;79.58;94478.09;5044590;28;20451;-67
2023/05/18 00:53:20;;;;;;;1.00;0.83;;;14.20;99.90;;;14.34;79.81;94479.06;5044772;28;20498;-68
2023/05/18 00:55:47;;;;;;;1.60;1.00;;;14.20;99.90;;;14.34;79.30;94484.34;5041767;28;20854;-67
2023/05/18 00:58:14;;;;;;;2.07;1.00;;;14.20;99.90;;;14.31;79.45;94488.19;5046505;28;20781;-61
2023/05/18 01:00:42;;;;;;;9.63;0.87;;;14.20;99.90;;;14.30;79.30;94481.25;5042741;28;20551;-61
2023/05/18 01:03:11;;;;;;;1.40;1.00;;;14.20;99.90;;;14.28;79.42;94472.66;5048346;28;20459;-67
2023/05/18 01:05:38;;;;;;;0.90;0.70;;;14.20;99.90;;;14.28;79.41;94477.13;5049825;28;20509;-67
2023/05/18 01:08:05;;;;;;;1.97;0.67;;;14.20;99.90;;;14.27;79.33;94471.00;5044892;28;20922;-60
2023/05/18 01:10:34;;;;;;;1.43;0.90;;;14.10;99.90;;;14.26;79.61;94472.00;5044483;28;20475;-68
2023/05/18 01:13:04;;;;;;;1.93;0.90;;;14.10;99.90;;;14.24;79.79;94468.72;5046550;28;20861;-60
2023/05/18 01:15:35;;;;;;;0.90;0.73;;;14.10;99.90;;;14.24;79.34;94476.66;5041060;28;21054;-68
2023/05/18 01:18:13;;;;;;;0.90;0.70;;;14.10;99.90;;;14.22;79.37;94470.72;5045091;28;20451;-68
2023/05/18 01:20:46;;;;;;;1.40;0.70;;;14.10;99.90;;;14.23;79.30;94467.03;5044462;28;20455;-59
2023/05/18 01:23:56;;;;;;;1.00;0.50;;;14.10;99.90;;;14.22;79.34;94469.88;5047721;28;20464;-68
2023/05/18 01:26:36;;;;;;;1.00;0.70;;;14.10;99.90;;;14.19;79.24;94468.41;5036330;28;20488;-69
2023/05/18 01:29:06;;;;;;;0.83;0.60;;;14.10;99.90;;;14.19;79.53;94465.75;5044405;28;20990;-68
2023/05/18 01:31:34;;;;;;;1.13;0.53;;;14.10;99.90;;;14.19;79.64;94467.56;5047419;28;20536;-68
2023/05/18 01:34:01;;;;;;;0.90;0.60;;;14.10;99.90;;;14.18;79.40;94469.41;5041798;28;20491;-69
2023/05/18 01:36:28;;;;;;;1.37;0.70;;;14.10;99.90;;;14.17;79.54;94465.09;5049210;28;20488;-60
2023/05/18 01:38:56;;;;;;;6.20;0.70;;;14.10;99.90;;;14.16;79.85;94477.50;5040541;28;20505;-72
2023/05/18 01:41:26;;;;;;;1.73;0.60;;;14.10;99.90;;;14.16;79.49;94472.22;5043320;28;20486;-68
2023/05/18 01:43:58;;;;;;;0.90;0.50;;;14.10;99.90;;;14.15;79.72;94467.91;5041275;28;20943;-60
2023/05/18 01:46:35;;;;;;;1.43;0.90;;;14.00;99.90;;;14.16;79.76;94476.69;5041613;28;20479;-68
2023/05/18 01:49:07;;;;;;;0.87;0.80;;;14.00;99.90;;;14.16;79.78;94480.16;5045876;28;20460;-68
2023/05/18 01:51:36;;;;;;;3.20;0.70;;;14.00;99.90;;;14.15;79.77;94469.75;5045476;28;20644;-68
2023/05/18 01:54:07;;;;;;;1.23;0.83;;;14.00;99.90;;;14.16;79.59;94472.22;5043027;28;20491;-69
2023/05/18 01:56:35;;;;;;;1.20;0.60;;;14.00;99.90;;;14.14;79.97;94471.56;5043586;28;20477;-68
2023/05/18 01:59:03;;;;;;;1.10;0.80;;;14.00;99.90;;;14.15;79.76;94483.78;5053812;28;20542;-60
2023/05/18 02:01:30;;;;;;;0.80;0.60;;;14.00;99.90;;;14.15;79.91;94477.66;5043557;28;20476;-62
2023/05/18 02:03:57;;;;;;;1.37;0.60;;;14.10;99.90;;;14.15;79.98;94480.31;5048963;28;20453;-60
2023/05/18 02:06:25;;;;;;;1.40;1.00;;;14.00;99.90;;;14.14;79.96;94483.94;5045250;28;20492;-60
2023/05/18 02:08:52;;;;;;;0.90;0.70;;;14.00;99.90;;;14.14;79.76;94486.59;5049084;28;20460;-60
2023/05/18 02:11:20;;;;;;;1.33;0.70;;;14.00;99.90;;;14.14;79.76;94481.31;5049839;28;20482;-62
2023/05/18 02:13:48;;;;;;;0.80;0.60;;;14.10;99.90;;;14.13;79.95;94484.97;5045821;28;20491;-59
2023/05/18 02:16:16;;;;;;;0.90;0.50;;;14.00;99.90;;;14.13;79.95;94484.97;5048455;28;20537;-61
2023/05/18 02:18:43;;;;;;;2.33;0.83;;;14.00;99.90;;;14.12;79.96;94483.31;5044548;28;20461;-68
2023/05/18 02:21:12;;;;;;;0.80;0.50;;;14.00;99.90;;;14.12;79.61;94488.59;5049532;28;20479;-69
2023/05/18 02:23:39;;;;;;;0.80;0.60;;;14.00;99.90;;;14.12;79.93;94488.59;5051511;28;20492;-61
2023/05/18 02:26:07;;;;;;;0.90;0.77;;;14.00;99.90;;;14.11;79.42;94487.78;5048330;28;20941;-66
2023/05/18 02:28:34;;;;;;;0.90;0.70;;;14.00;99.90;;;14.11;79.78;94487.78;5046515;28;20459;-67
2023/05/18 02:31:07;;;;;;;0.80;0.60;;;14.00;99.90;;;14.09;79.67;94494.22;5044081;28;21030;-67
2023/05/18 02:33:38;;;;;;;0.80;0.60;;;14.00;99.90;;;14.09;79.65;94494.22;5044238;28;20599;-67
2023/05/18 02:36:08;;;;;;;7.07;0.90;;;14.00;99.90;;;14.08;79.83;94484.63;5050458;28;20859;-67
2023/05/18 02:38:37;;;;;;;1.10;0.63;;;14.00;99.90;;;14.06;79.78;94479.50;5043129;28;20451;-60
2023/05/18 02:41:05;;;;;;;1.27;1.17;;;14.00;99.90;;;14.07;80.01;94490.94;5051648;28;20498;-65
2023/05/18 02:43:32;;;;;;;0.93;0.70;;;14.00;99.90;;;14.07;79.96;94494.41;5040895;28;20539;-61
2023/05/18 02:45:59;;;;;;;10.93;0.70;;;14.00;99.90;;;14.07;79.88;94498.88;5046221;28;20479;-66
2023/05/18 02:48:28;;;;;;;2.50;0.80;;;14.00;99.90;;;14.07;80.14;94496.22;5049205;28;20454;-60
2023/05/18 02:50:55;;;;;;;2.20;0.70;;;14.00;99.90;;;14.07;80.27;94502.31;5045100;28;21452;-67
2023/05/18 02:53:23;;;;;;;2.73;0.87;;;14.00;99.90;;;14.07;80.12;94504.16;5049487;28;20522;-60
2023/05/18 02:55:55;;;;;;;0.90;0.77;;;14.00;99.90;;;14.07;80.08;94502.31;5048551;28;20455;-60
2023/05/18 02:58:24;;;;;;;1.00;0.77;;;14.00;99.90;;;14.07;80.22;94506.81;5047572;28;20448;-60
2023/05/18 03:00:53;;;;;;;1.23;0.70;;;14.00;99.90;;;14.07;80.24;94507.63;5050346;28;20539;-62
2023/05/18 03:03:22;;;;;;;1.03;0.93;;;14.00;99.90;;;14.08;80.27;94509.28;5046755;28;20540;-68
2023/05/18 03:05:52;;;;;;;3.17;1.07;;;14.00;99.90;;;14.09;80.27;94520.66;5046118;28;20535;-64
2023/05/18 03:08:21;;;;;;;1.40;0.90;;;14.00;99.90;;;14.10;80.20;94528.44;5052988;28;20460;-67
2023/05/18 03:10:49;;;;;;;1.47;1.27;;;14.00;99.90;;;14.11;80.07;94530.09;5042928;28;20471;-61
2023/05/18 03:13:16;;;;;;;1.10;1.00;;;14.00;99.90;;;14.12;80.36;94533.56;5044959;28;21322;-67
2023/05/18 03:15:44;;;;;;;1.67;1.20;;;14.00;99.90;;;14.12;80.31;94531.72;5045565;28;20460;-61
2023/05/18 03:18:11;;;;;;;1.87;1.30;;;14.00;99.90;;;14.14;80.25;94539.50;5047953;28;20889;-70
2023/05/18 03:20:39;;;;;;;1.27;1.17;;;14.00;99.90;;;14.14;80.21;94539.50;5056968;28;20566;-69
2023/05/18 03:23:09;;;;;;;1.80;1.70;;;14.00;99.90;;;14.14;80.31;94544.78;5045172;28;20550;-61
2023/05/18 03:25:37;;;;;;;1.20;1.10;;;14.00;99.90;;;14.13;80.11;94549.25;5053427;28;20471;-67
2023/05/18 03:28:04;;;;;;;4.70;1.60;;;14.00;99.90;;;14.13;80.12;94548.44;5045026;28;20501;-60
2023/05/18 03:30:32;;;;;;;2.30;1.30;;;14.10;99.90;;;14.14;80.13;94552.72;5045973;28;20475;-68
2023/05/18 03:33:00;;;;;;;1.20;1.10;;;14.00;99.90;;;14.15;80.23;94554.38;5053407;28;20532;-61
2023/05/18 03:35:27;;;;;;;2.70;1.00;;;14.00;99.90;;;14.15;80.45;94557.84;5045530;28;21328;-68
2023/05/18 03:37:55;;;;;;;1.70;1.60;;;14.00;99.90;;;14.16;80.18;94558.69;5050896;28;20479;-61
2023/05/18 03:40:24;;;;;;;1.60;1.50;;;14.00;99.90;;;14.16;80.16;94556.84;5042824;28;20464;-67
2023/05/18 03:42:52;;;;;;;6.00;1.50;;;14.10;99.90;;;14.17;80.03;94562.94;5045343;28;20494;-59
2023/05/18 03:45:19;;;;;;;1.90;1.80;;;14.10;99.90;;;14.16;79.96;94562.13;5040123;28;20467;-68
2023/05/18 03:47:46;;;;;;;1.70;1.60;;;14.10;99.90;;;14.18;80.10;94558.50;5043360;28;20475;-59
2023/05/18 03:50:14;;;;;;;3.30;1.70;;;14.00;99.90;;;14.18;79.86;94556.69;5046870;28;20452;-60
2023/05/18 03:52:43;;;;;;;2.70;2.50;;;14.10;99.90;;;14.20;80.04;94556.50;5045436;28;20463;-60
2023/05/18 03:55:10;;;;;;;2.57;2.37;;;14.10;99.90;;;14.22;80.21;94568.59;5042219;28;20843;-60
2023/05/18 03:57:39;;;;;;;2.30;2.20;;;14.10;99.90;;;14.24;79.95;94566.59;5047118;28;20520;-62
2023/05/18 04:00:11;;;;;;;10.93;2.57;;;14.10;99.90;;;14.26;80.01;94569.88;5054540;28;20462;-69
2023/05/18 04:02:39;;;;;;;2.63;2.43;;;14.10;99.90;;;14.28;79.99;94565.25;5042334;28;20471;-69
2023/05/18 04:05:08;;;;;;;5.63;2.17;;;14.20;99.90;;;14.29;80.06;94569.53;5046319;28;20848;-71
2023/05/18 04:07:42;;;;;;;5.80;2.40;;;14.20;99.90;;;14.31;79.76;94577.31;5046091;28;20601;-60
2023/05/18 04:10:10;;;;;;;2.90;2.60;;;14.20;99.90;;;14.34;79.77;94584.91;5037430;28;20811;-70
2023/05/18 04:12:39;;;;;;;6.87;2.00;;;14.20;99.90;;;14.34;79.78;94582.25;5043574;28;20475;-61
2023/05/18 04:15:08;;;;;;;2.10;2.00;;;14.30;99.90;;;14.35;79.87;94583.91;5048831;28;20483;-59
2023/05/18 04:17:35;;;;;;;4.13;2.07;;;14.20;99.90;;;14.35;79.60;94584.72;5042157;28;20476;-59
2023/05/18 04:20:12;;;;;;;2.70;2.50;;;14.30;99.90;;;14.37;79.67;94589.84;5046447;28;22163;-61
2023/05/18 04:22:44;;;;;;;2.10;2.00;;;14.30;99.90;;;14.40;79.89;94591.34;5043347;28;20908;-61
2023/05/18 04:25:12;;;;;;;2.63;1.90;;;14.30;99.90;;;14.40;79.56;94586.88;5045441;28;21045;-69
2023/05/18 04:27:42;;;;;;;3.07;2.73;;;14.30;99.90;;;14.43;79.57;94585.72;5049452;28;20992;-66
2023/05/18 04:30:10;;;;;;;3.00;2.50;;;14.30;99.90;;;14.46;79.68;94585.38;5039651;28;20462;-68
2023/05/18 04:32:38;;;;;;;5.03;2.50;;;14.30;99.90;;;14.48;79.46;94588.66;5040000;28;21037;-62
2023/05/18 04:35:06;;;;;;;3.43;3.23;;;14.40;99.90;;;14.49;79.96;94593.78;5043711;28;21023;-65
2023/05/18 04:37:34;;;;;;;3.33;3.10;;;14.40;99.90;;;14.50;79.70;94586.66;5048161;28;20471;-66
2023/05/18 04:40:06;;;;;;;3.03;2.77;;;14.40;99.90;;;14.53;79.44;94599.53;5051475;28;20456;-65
2023/05/18 04:42:34;;;;;;;5.50;2.53;;;14.40;99.90;;;14.54;79.36;94595.91;5046405;28;20475;-70
2023/05/18 04:45:04;;;;;;;4.50;3.30;;;14.40;99.90;;;14.55;79.19;94600.22;5047347;28;20483;-68
2023/05/18 04:47:32;;;;;;;3.80;3.00;;;14.50;99.90;;;14.56;79.18;94601.84;5042634;28;20526;-69
2023/05/18 04:49:59;;;;;;;4.10;3.30;;;14.40;99.90;;;14.57;79.36;94600.88;5043133;28;21086;-60
2023/05/18 04:52:29;;;;;;;2.73;2.53;;;14.50;99.90;;;14.60;79.14;94608.50;5044297;28;20467;-70
2023/05/18 04:54:56;;;;;;;2.60;2.50;;;14.50;99.90;;;14.62;79.34;94603.03;5041882;28;20486;-60
2023/05/18 04:57:24;;;;;;;2.47;2.37;;;14.50;99.90;;;14.63;79.13;94608.16;5045676;28;20905;-70
2023/05/18 04:59:52;;;;;;;4.40;2.70;;;14.50;99.90;;;14.64;79.49;94609.81;5049224;28;20475;-61
2023/05/18 05:02:20;;;;;;;5.57;3.83;;;14.50;99.90;;;14.65;79.07;94611.44;5045710;28;20590;-68
2023/05/18 05:04:48;;;;;;;2.60;2.40;;;14.50;99.90;;;14.65;79.10;94616.75;5047283;28;21007;-61
2023/05/18 05:07:15;;;;;;;2.83;2.63;;;14.60;99.90;;;14.65;78.96;94624.69;5043053;28;20490;-60
2023/05/18 05:09:42;;;;;;;5.70;3.33;;;14.50;99.90;;;14.66;78.92;94626.34;5054158;28;20466;-60
2023/05/18 05:12:10;;;;;;;5.70;3.17;;;14.50;99.90;;;14.63;78.81;94633.81;5050452;28;20815;-70
2023/05/18 05:14:37;;;;;;;6.37;2.77;;;14.50;99.90;;;14.63;78.75;94631.16;5043362;28;20489;-70
2023/05/18 05:17:05;;;;;;;5.63;2.37;;;14.50;99.90;;;14.63;78.77;94634.63;5044362;28;21023;-71
2023/05/18 05:19:34;;;;;;;3.07;2.87;;;14.50;99.90;;;14.63;78.78;94639.09;5043280;28;20612;-69
2023/05/18 05:22:01;;;;;;;3.90;2.47;;;14.50;99.90;;;14.64;78.57;94643.38;5044467;28;21404;-59
2023/05/18 05:24:28;;;;;;;3.63;2.90;;;14.50;99.90;;;14.63;78.60;94642.56;5049033;28;20824;-69
2023/05/18 05:26:56;;;;;;;3.20;3.10;;;14.50;99.90;;;14.64;78.56;94646.88;5041646;28;20553;-60
2023/05/18 05:29:25;;;;;;;3.50;3.30;;;14.50;99.90;;;14.63;78.54;94647.84;5048900;28;20452;-67
2023/05/18 05:31:52;;;;;;;5.53;2.50;;;14.50;99.90;;;14.62;78.73;94648.84;5041156;28;20483;-59
2023/05/18 05:34:19;;;;;;;3.43;3.13;;;14.50;99.90;;;14.59;78.62;94646.50;5040110;28;20488;-69
2023/05/18 05:36:48;;;;;;;3.97;2.97;;;14.50;99.90;;;14.58;78.80;94647.53;5048679;28;20470;-60
2023/05/18 05:39:15;;;;;;;3.73;3.03;;;14.50;99.90;;;14.59;78.69;94653.63;5044010;28;20448;-59
2023/05/18 05:41:42;;;;;;;4.40;3.53;;;14.50;99.90;;;14.58;78.92;94655.47;5047345;28;21029;-59
2023/05/18 05:44:10;;;;;;;4.97;3.30;;;14.50;99.90;;;14.57;78.77;94659.09;5039236;28;20456;-59
2023/05/18 05:46:37;;;;;;;6.20;4.33;;;14.50;99.90;;;14.57;78.54;94661.75;5045706;28;20538;-59
2023/05/18 05:49:04;;;;;;;3.60;3.40;;;14.40;99.90;;;14.56;78.62;94657.44;5041045;28;20452;-60
2023/05/18 05:51:31;;;;;;;5.37;3.93;;;14.50;99.90;;;14.55;78.90;94657.59;5042832;28;20479;-60
2023/05/18 05:54:00;;;;;;;6.60;4.43;;;14.50;99.90;;;14.56;78.85;94662.72;5043956;28;20444;-69
2023/05/18 05:56:27;;;;;;;8.13;3.87;;;14.40;99.90;;;14.57;78.99;94666.22;5043370;28;20467;-70
2023/05/18 05:58:55;;;;;;;7.70;4.57;;;14.50;99.90;;;14.56;78.96;94662.72;5043187;28;20474;-60
2023/05/18 06:01:22;;;;;;;5.43;4.50;;;14.50;99.90;;;14.57;78.93;94667.03;5046947;28;20483;-70
2023/05/18 06:03:50;;;;;;;6.13;3.90;;;14.50;99.90;;;14.58;79.02;94667.84;5048481;28;20986;-68
2023/05/18 06:06:17;;;;;;;5.63;3.13;;;14.50;99.90;;;14.60;79.03;94666.72;5052025;28;20468;-69
2023/05/18 06:08:45;;;;;;;3.40;3.20;;;14.50;99.90;;;14.60;78.97;94666.72;5044073;28;20506;-59
2023/05/18 06:11:13;;;;;;;3.83;3.30;;;14.50;99.90;;;14.61;78.93;94665.75;5048889;28;20959;-59
2023/05/18 06:13:41;;;;;;;4.13;3.50;;;14.50;99.90;;;14.62;78.67;94672.66;5039552;28;20471;-70
2023/05/18 06:16:08;;;;;;;7.43;3.73;;;14.50;99.90;;;14.63;78.89;94676.97;5045654;28;20865;-60
2023/05/18 06:18:35;;;;;;;4.63;3.90;;;14.50;99.90;;;14.64;79.05;94668.06;5043436;28;20524;-69
2023/05/18 06:21:02;;;;;;;5.30;3.80;;;14.50;99.90;;;14.67;79.08;94677.44;5048076;28;20549;-60
2023/05/18 06:23:30;;;;;;;4.03;3.70;;;14.50;99.90;;;14.72;79.30;94676.94;5040517;28;20518;-61
2023/05/18 06:25:57;;;;;;;5.00;4.60;;;14.60;99.90;;;14.76;79.07;94675.63;5047499;28;20476;-70
2023/05/18 06:28:26;;;;;;;5.90;4.00;;;14.60;99.90;;;14.81;79.18;94673.28;5047783;28;20463;-60
2023/05/18 06:30:53;;;;;;;3.70;3.40;;;14.70;99.90;;;14.86;79.05;94673.59;5041486;28;20449;-70
2023/05/18 06:33:22;;;;;;;3.77;3.43;;;14.70;99.90;;;14.92;78.92;94688.81;5040240;28;20468;-59
2023/05/18 06:35:50;;;;;;;5.50;4.43;;;14.80;99.90;;;14.98;78.33;94685.47;5042643;28;20491;-59
2023/05/18 06:38:17;;;;;;;10.17;4.60;;;14.80;99.90;;;15.03;78.31;94687.63;5046102;28;21285;-60
2023/05/18 06:40:44;;;;;;;8.27;4.23;;;14.90;99.90;;;15.06;78.07;94696.03;5049515;28;20448;-70
2023/05/18 06:43:12;;;;;;;3.67;3.30;;;14.90;99.90;;;15.10;78.32;94696.50;5049474;28;21335;-61
2023/05/18 06:45:40;;;;;;;7.70;4.60;;;15.00;99.90;;;15.15;77.20;94707.44;5047734;28;20448;-70
2023/05/18 06:48:07;;;;;;;4.53;3.77;;;15.00;99.90;;;15.17;76.79;94699.31;5050021;28;20448;-59
2023/05/18 06:50:35;;;;;;;4.77;4.40;;;15.00;99.90;;;15.23;76.75;94710.03;5037837;28;20467;-60
2023/05/18 06:53:03;;;;;;;5.47;5.00;;;15.10;99.90;;;15.32;76.64;94717.94;5044241;28;20471;-70
2023/05/18 06:55:30;;;;;;;6.63;4.40;;;15.20;99.90;;;15.40;76.66;94708.13;5045866;28;20574;-59
2023/05/18 06:57:57;;;;;;;7.90;4.87;;;15.20;99.90;;;15.49;76.80;94710.75;5047605;28;20472;-61
2023/05/18 07:00:25;;;;;;;8.37;3.80;;;15.30;99.90;;;15.54;74.74;94711.06;5048654;28;21052;-60
2023/05/18 07:02:53;;;;;;;6.70;4.60;;;15.40;99.90;;;15.58;74.77;94722.94;5040117;28;21125;-60
2023/05/18 07:05:22;;;;;;;4.87;4.50;;;15.40;99.90;;;15.60;74.48;94726.28;5037796;28;20459;-60
2023/05/18 07:07:49;;;;;;;7.83;4.70;;;15.50;99.90;;;15.63;74.01;94728.56;5047097;28;20480;-59
2023/05/18 07:10:16;;;;;;;5.43;4.93;;;15.50;99.90;;;15.64;73.80;94726.75;5048035;28;20460;-60
2023/05/18 07:12:44;;;;;;;8.83;4.47;;;15.50;99.90;;;15.64;73.12;94727.56;5048806;28;20493;-70
2023/05/18 07:15:12;;;;;;;5.27;4.77;;;15.50;99.90;;;15.60;72.73;94739.53;5047132;28;20487;-70
2023/05/18 07:17:39;;;;;;;9.20;6.27;;;15.50;99.90;;;15.58;72.34;94738.84;5045929;28;20468;-60
2023/05/18 07:20:09;;;;;;;8.80;5.30;;;15.50;99.90;;;15.55;71.85;94742.69;5047330;28;20451;-70
2023/05/18 07:22:36;;;;;;;5.23;4.73;;;15.50;99.90;;;15.53;71.35;94743.88;5044924;28;20463;-71
2023/05/18 07:25:05;;;;;;;7.33;4.67;;;15.40;99.90;;;15.48;71.04;94740.91;5048614;28;20458;-69
2023/05/18 07:27:33;;;;;;;6.23;5.60;;;15.40;99.90;;;15.44;70.42;94742.25;5047721;28;20477;-69
2023/05/18 07:30:00;;;;;;;6.23;4.63;;;15.30;99.90;;;15.36;68.58;94746.56;5044157;28;20448;-61
2023/05/18 07:32:27;;;;;;;7.60;5.20;;;15.20;99.90;;;15.30;70.34;94747.25;5048975;28;20507;-60
2023/05/18 07:34:55;;;;;;;8.40;5.43;;;15.20;99.90;;;15.26;69.48;94745.97;5045158;28;20517;-69
2023/05/18 07:37:23;;;;;;;5.80;4.70;;;15.10;99.90;;;15.22;69.14;94742.81;5043415;28;20597;-68
2023/05/18 07:39:51;;;;;;;12.87;5.30;;;15.10;99.90;;;15.19;69.29;94756.41;5048410;28;20816;-69
2023/05/18 07:42:18;;;;;;;8.43;4.90;;;15.10;99.90;;;15.18;69.51;94754.78;5050543;28;20507;-61
2023/05/18 07:44:46;;;;;;;13.80;6.17;;;15.00;99.90;;;15.17;69.61;94755.75;5050097;28;20475;-70
2023/05/18 07:47:13;;;;;;;10.27;4.47;;;15.00;99.90;;;15.18;69.38;94753.94;5042201;28;20488;-70
2023/05/18 07:49:41;;;;;;;5.93;5.30;;;15.00;99.90;;;15.20;69.10;94762.56;5046417;28;20849;-70
2023/05/18 07:52:09;;;;;;;5.03;4.53;;;15.00;99.90;;;15.22;69.79;94771.16;5044009;28;20466;-60
2023/05/18 07:54:37;;;;;;;8.83;6.13;;;15.10;99.90;;;15.26;69.62;94769.81;5050524;28;20456;-70
2023/05/18 07:57:05;;;;;;;13.63;5.00;;;15.10;99.90;;;15.30;68.91;94768.47;5043712;28;20472;-62
2023/05/18 07:59:32;;;;;;;7.60;6.03;;;15.20;99.90;;;15.31;68.31;94769.31;5046799;28;20455;-60
2023/05/18 08:02:00;;;;;;;11.70;5.10;;;15.10;99.90;;;15.32;68.61;94776.25;5049749;28;20502;-58
2023/05/18 08:04:28;;;;;;;17.73;5.23;;;15.10;99.90;;;15.32;68.60;94777.09;5042385;28;20870;-59
2023/05/18 08:06:59;;;;;;;8.53;6.07;;;15.20;99.90;;;15.35;68.63;94774.09;5048612;28;20466;-59
2023/05/18 08:09:26;;;;;;;8.57;5.93;;;15.20;99.90;;;15.38;68.94;94786.16;5045345;28;20428;-59
2023/05/18 08:11:55;;;;;;;7.27;4.50;;;15.20;99.90;;;15.41;68.70;94791.97;5045247;28;20556;-68
2023/05/18 08:14:22;;;;;;;6.37;5.27;;;15.30;99.90;;;15.44;68.64;94789.97;5044503;28;20498;-59
2023/05/18 08:16:50;;;;;;;5.43;3.93;;;15.30;99.90;;;15.46;68.84;94798.56;5045974;28;20585;-65
2023/05/18 08:19:17;;;;;;;11.37;5.00;;;15.30;99.90;;;15.48;68.48;94797.38;5039332;28;20452;-59
2023/05/18 08:21:45;;;;;;;8.37;4.50;;;15.30;99.90;;;15.49;67.83;94799.06;5043999;28;20496;-69
2023/05/18 08:24:12;;;;;;;8.40;4.63;;;15.30;99.90;;;15.49;67.55;94809.66;5043831;28;20452;-57
2023/05/18 08:26:39;;;;;;;7.67;4.73;;;15.30;99.90;;;15.50;67.67;94799.88;5046344;28;21352;-69
2023/05/18 08:29:09;;;;;;;11.50;4.80;;;15.40;99.90;;;15.51;67.75;94802.34;5048058;28;20458;-59
2023/05/18 08:31:37;;;;;;;10.27;4.93;;;15.40;99.90;;;15.49;66.74;94806.16;5044209;28;20507;-69
2023/05/18 08:34:04;;;;;;;9.90;5.00;;;15.40;99.90;;;15.49;67.42;94811.47;5037799;28;20894;-69
2023/05/18 08:36:33;;;;;;;8.90;4.63;;;15.40;99.90;;;15.49;67.43;94812.31;5044432;28;20495;-68
2023/05/18 08:39:00;;;;;;;6.97;4.93;;;15.30;99.90;;;15.47;66.73;94811.63;5042581;28;20473;-59
2023/05/18 08:41:30;;;;;;;11.57;6.20;;;15.40;99.90;;;15.47;67.06;94813.47;5046777;28;20471;-59
2023/05/18 08:44:02;;;;;;;5.37;4.87;;;15.30;99.90;;;15.47;66.71;94818.78;5043429;28;21006;-68
2023/05/18 08:46:33;;;;;;;7.33;6.60;;;15.30;99.90;;;15.46;67.29;94814.44;5045896;28;20575;-68
2023/05/18 08:49:02;;;;;;;14.23;5.50;;;15.30;99.90;;;15.49;66.93;94824.72;5048043;28;20452;-69
2023/05/18 08:51:31;;;;;;;8.20;5.80;;;15.30;99.90;;;15.49;67.44;94822.06;5042127;28;20500;-70
2023/05/18 08:53:58;;;;;;;10.03;5.93;;;15.40;99.90;;;15.50;67.03;94832.50;5042739;28;20486;-69
2023/05/18 08:56:26;;;;;;;11.30;5.70;;;15.30;99.90;;;15.51;66.75;94830.69;5045216;28;20499;-67
2023/05/18 08:58:56;;;;;;;7.03;4.97;;;15.40;99.90;;;15.50;66.79;94837.78;5045756;28;20490;-59
2023/05/18 09:01:26;;;;;;;16.87;5.47;;;15.40;99.90;;;15.51;66.13;94846.59;5044194;28;20533;-68
2023/05/18 09:03:56;;;;;;;8.77;4.70;;;15.40;99.90;;;15.51;66.45;94839.47;5036823;28;20453;-70
2023/05/18 09:06:25;;;;;;;14.13;4.87;;;15.40;99.90;;;15.50;65.81;94842.28;5047778;28;20660;-71
2023/05/18 09:08:52;;;;;;;6.50;4.20;;;15.40;99.90;;;15.51;65.76;94849.25;5047391;28;20448;-70
2023/05/18 09:11:20;;;;;;;10.03;4.80;;;15.40;99.90;;;15.49;65.92;94857.38;5046310;28;20582;-69
2023/05/18 09:13:48;;;;;;;8.87;5.10;;;15.40;99.90;;;15.50;65.73;94864.31;5042161;28;20519;-60
2023/05/18 09:16:16;;;;;;;10.77;4.93;;;15.40;99.90;;;15.50;65.64;94866.97;5038877;28;20496;-69
2023/05/18 09:18:43;;;;;;;5.53;4.80;;;15.40;99.90;;;15.51;65.60;94868.63;5047898;28;20525;-59
2023/05/18 09:21:12;;;;;;;16.43;5.43;;;15.40;99.90;;;15.51;65.62;94865.97;5049727;28;20471;-70
2023/05/18 09:23:39;;;;;;;9.27;5.00;;;15.40;99.90;;;15.52;65.67;94869.44;5041023;28;20947;-69
2023/05/18 09:26:08;;;;;;;8.13;5.60;;;15.40;99.90;;;15.53;65.57;94876.41;5043269;28;20547;-69
2023/05/18 09:28:37;;;;;;;6.50;5.10;;;15.40;99.90;;;15.53;65.54;94868.44;5043514;28;20455;-68
2023/05/18 09:31:06;;;;;;;8.70;5.10;;;15.40;99.90;;;15.52;66.08;94875.59;5041576;28;20988;-59
2023/05/18 09:33:35;;;;;;;11.00;5.20;;;15.40;99.90;;;15.51;65.46;94871.28;5049104;28;20456;-60
2023/05/18 09:36:04;;;;;;;13.60;5.57;;;15.40;99.90;;;15.50;65.39;94869.59;5045977;28;20495;-59
2023/05/18 09:38:36;;;;;;;9.90;5.10;;;15.40;99.90;;;15.51;65.41;94875.75;5042651;28;20821;-60
2023/05/18 09:41:04;;;;;;;10.90;5.50;;;15.40;99.90;;;15.54;65.14;94876.22;5041501;28;20482;-69
2023/05/18 09:43:31;;;;;;;6.47;5.07;;;15.40;99.90;;;15.58;65.29;94879.34;5046279;28;20475;-69
2023/05/18 09:45:58;;;;;;;7.77;5.10;;;15.40;99.90;;;15.58;64.02;94882.84;5042751;28;20531;-71
2023/05/18 09:48:25;;;;;;;6.87;4.00;;;15.40;99.90;;;15.56;63.96;94878.72;5044612;28;20464;-60
2023/05/18 09:50:53;;;;;;;6.20;5.03;;;15.40;99.90;;;15.55;63.88;94882.34;5049549;28;20449;-69
2023/05/18 09:53:20;;;;;;;12.63;4.80;;;15.50;99.90;;;15.54;63.87;94883.38;5041388;28;20456;-60
2023/05/18 09:55:49;;;;;;;5.93;4.27;;;15.40;99.90;;;15.53;64.38;94884.34;5038502;28;20541;-69
2023/05/18 09:58:16;;;;;;;9.33;7.40;;;15.40;99.90;;;15.54;64.24;94888.66;5040628;28;20586;-71
2023/05/18 10:00:50;;;;;;;12.03;6.47;;;15.40;99.90;;;15.51;64.12;94887.19;5050399;28;20893;-70
2023/05/18 10:03:18;;;;;;;19.70;9.70;;;15.40;99.90;;;15.48;65.42;94894.66;5040115;28;21529;-59
2023/05/18 10:05:46;;;;;;;17.90;11.63;;;15.40;99.90;;;15.41;66.05;94894.47;5048903;28;20450;-70
2023/05/18 10:08:14;;;;;;;22.47;12.90;;;15.30;99.90;;;15.35;66.38;94893.34;5047268;28;20483;-70
2023/05/18 10:10:45;;;;;;;12.60;11.07;;;15.30;99.90;;;15.33;66.85;94900.63;5045724;28;20528;-70
2023/05/18 10:13:19;;;;;;;19.70;12.70;;;15.20;99.90;;;15.29;66.76;94896.69;5040600;28;20487;-68
2023/05/18 10:15:51;;;;;;;17.40;12.40;;;15.20;99.90;;;15.29;67.05;94901.97;5050380;28;20497;-62
2023/05/18 10:18:22;;;;;;;23.17;12.80;;;15.20;99.90;;;15.30;67.59;94900.16;5042159;28;20523;-69
2023/05/18 10:20:50;;;;;;;23.50;13.17;;;15.20;99.90;;;15.34;67.60;94902.28;5051701;28;20455;-69
2023/05/18 10:23:18;;;;;;;23.67;12.57;;;15.20;99.90;;;15.39;67.62;94905.25;5046119;28;20513;-70
2023/05/18 10:25:46;;;;;;;21.17;11.43;;;15.30;99.90;;;15.43;67.44;94895.16;5048096;28;20455;-60
2023/05/18 10:28:18;;;;;;;33.47;15.03;;;15.30;99.90;;;15.49;67.42;94902.44;5042676;28;20451;-61
2023/05/18 10:30:46;;;;;;;24.57;12.53;;;15.30;99.90;;;15.54;67.34;94904.56;5042886;28;20460;-60
2023/05/18 10:33:13;;;;;;;19.10;11.60;;;15.40;99.90;;;15.56;67.06;94910.53;5048637;28;20444;-70